createdAt,value
2023-03-11T07:10:10.460Z,95763.44
2023-03-11T07:11:17.781Z,95778.16
2023-03-11T07:12:23.036Z,95765.38
2023-03-11T07:13:24.563Z,95778.97
2023-03-11T07:14:26.021Z,95792.00
2023-03-11T07:15:27.458Z,95786.50
2023-03-11T07:16:30.018Z,95781.13
2023-03-11T07:17:32.138Z,95785.31
2023-03-11T07:18:35.148Z,95787.03
2023-03-11T07:19:36.510Z,95804.63
2023-03-11T07:20:38.174Z,95772.72
2023-03-11T07:21:40.129Z,95786.41
2023-03-11T07:22:41.542Z,95796.47
2023-03-11T07:23:43.428Z,95796.44
2023-03-11T07:24:49.216Z,95801.66
2023-03-11T07:25:52.735Z,95793.97
2023-03-11T07:26:54.121Z,95768.09
2023-03-11T07:27:55.459Z,95791.66
2023-03-11T07:28:57.905Z,95795.13
2023-03-11T07:30:02.052Z,95803.41
2023-03-11T07:31:17.947Z,95804.44
2023-03-11T07:32:19.749Z,95794.03
2023-03-11T07:33:23.945Z,95806.16
2023-03-11T07:34:25.453Z,95810.25
2023-03-11T07:35:26.823Z,95809.34
2023-03-11T07:36:29.021Z,95811.94
2023-03-11T07:37:30.472Z,95810.50
2023-03-11T07:38:31.857Z,95811.94
2023-03-11T07:39:33.328Z,95803.72
2023-03-11T07:40:35.564Z,95806.59
2023-03-11T07:41:36.947Z,95803.03
2023-03-11T07:42:39.052Z,95809.25
2023-03-11T07:43:42.884Z,95812.53
2023-03-11T07:44:44.340Z,95810.72
2023-03-11T07:45:45.780Z,95802.81
2023-03-11T07:46:47.475Z,95814.53
2023-03-11T07:47:48.861Z,95801.84
2023-03-11T07:48:51.657Z,95811.09
2023-03-11T07:49:53.102Z,95815.59
2023-03-11T07:51:28.856Z,95815.03
2023-03-11T07:52:31.995Z,95820.09
2023-03-11T07:53:34.368Z,95827.38
2023-03-11T07:54:35.887Z,95830.69
2023-03-11T07:55:37.323Z,95829.03
2023-03-11T07:56:38.898Z,95831.16
2023-03-11T07:57:40.619Z,95830.56
2023-03-11T07:58:45.657Z,95826.22
2023-03-11T07:59:47.396Z,95820.75
2023-03-11T08:00:48.900Z,95824.59
2023-03-11T08:01:50.771Z,95817.25
2023-03-11T08:02:52.525Z,95820.75
2023-03-11T08:03:58.812Z,95818.22
2023-03-11T08:05:00.499Z,95816.44
2023-03-11T08:06:02.362Z,95816.97
2023-03-11T08:07:04.052Z,95823.50
2023-03-11T08:08:05.546Z,95828.09
2023-03-11T08:09:09.220Z,95826.28
2023-03-11T08:10:11.496Z,95827.13
2023-03-11T08:11:13.935Z,95832.66
2023-03-11T08:12:16.415Z,95835.63
2023-03-11T08:13:17.962Z,95834.78
2023-03-11T08:14:19.290Z,95835.41
2023-03-11T08:15:20.779Z,95833.13
2023-03-11T08:16:22.622Z,95835.16
2023-03-11T08:17:24.083Z,95834.81
2023-03-11T08:18:25.483Z,95835.59
2023-03-11T08:19:26.954Z,95827.50
2023-03-11T08:20:28.339Z,95822.47
2023-03-11T08:21:32.221Z,95835.94
2023-03-11T08:22:33.839Z,95835.72
2023-03-11T08:23:35.392Z,95836.47
2023-03-11T08:24:36.915Z,95842.94
2023-03-11T08:25:39.992Z,95841.06
2023-03-11T08:26:41.992Z,95844.59
2023-03-11T08:27:43.557Z,95832.03
2023-03-11T08:28:45.134Z,95846.72
2023-03-11T08:29:46.526Z,95832.06
2023-03-11T08:30:48.063Z,95838.94
2023-03-11T08:31:49.503Z,95839.25
2023-03-11T08:32:51.056Z,95838.31
2023-03-11T08:33:55.242Z,95840.19
2023-03-11T08:34:57.432Z,95847.66
2023-03-11T08:35:58.944Z,95844.47
2023-03-11T08:37:01.231Z,95840.81
2023-03-11T08:38:02.672Z,95844.84
2023-03-11T08:39:04.319Z,95847.06
2023-03-11T08:40:06.476Z,95851.75
2023-03-11T08:41:07.968Z,95846.84
2023-03-11T08:42:09.391Z,95850.38
2023-03-11T08:43:14.739Z,95848.06
2023-03-11T08:44:16.328Z,95854.94
2023-03-11T08:45:17.960Z,95847.91
2023-03-11T08:46:33.649Z,95853.31
2023-03-11T08:47:36.482Z,95857.88
2023-03-11T08:48:37.924Z,95854.81
2023-03-11T08:49:39.420Z,95849.09
2023-03-11T08:50:53.357Z,95849.41
2023-03-11T08:51:55.030Z,95849.41
2023-03-11T08:53:00.356Z,95860.88
2023-03-11T08:54:02.421Z,95844.97
2023-03-11T08:55:05.117Z,95839.00
2023-03-11T08:56:06.840Z,95854.78
2023-03-11T08:57:08.400Z,95862.72
2023-03-11T08:58:09.811Z,95848.66
2023-03-11T08:59:11.209Z,95856.75
2023-03-11T09:00:13.323Z,95851.03
2023-03-11T09:01:14.870Z,95850.84
2023-03-11T09:02:16.535Z,95867.38
2023-03-11T09:03:17.929Z,95859.47
2023-03-11T09:04:19.362Z,95860.69
2023-03-11T09:05:20.877Z,95856.09
2023-03-11T09:06:22.387Z,95865.06
2023-03-11T09:07:23.791Z,95855.06
2023-03-11T09:08:25.651Z,95856.66
2023-03-11T09:09:27.285Z,95854.94
2023-03-11T09:10:28.837Z,95863.81
2023-03-11T09:11:30.263Z,95862.94
2023-03-11T09:12:31.719Z,95851.25
2023-03-11T09:13:33.352Z,95867.44
2023-03-11T09:14:35.422Z,95861.25
2023-03-11T09:15:36.873Z,95860.81
2023-03-11T09:16:38.395Z,95865.66
2023-03-11T09:17:39.793Z,95851.16
2023-03-11T09:18:41.197Z,95864.13
2023-03-11T09:19:42.761Z,95877.13
2023-03-11T09:20:45.066Z,95873.59
2023-03-11T09:21:46.390Z,95877.44
2023-03-11T09:22:48.216Z,95881.13
2023-03-11T09:23:49.671Z,95878.69
2023-03-11T09:24:51.047Z,95875.38
2023-03-11T09:25:52.472Z,95876.78
2023-03-11T09:26:53.952Z,95876.78
2023-03-11T09:27:55.354Z,95876.88
2023-03-11T09:28:56.839Z,95883.50
2023-03-11T09:29:58.228Z,95875.88
2023-03-11T09:31:01.356Z,95866.28
2023-03-11T09:32:02.894Z,95879.47
2023-03-11T09:33:04.470Z,95876.56
2023-03-11T09:34:05.998Z,95874.41
2023-03-11T09:35:07.705Z,95880.63
2023-03-11T09:36:19.736Z,95867.22
2023-03-11T09:37:21.162Z,95863.28
2023-03-11T09:38:22.612Z,95874.22
2023-03-11T09:39:24.128Z,95852.94
2023-03-11T09:40:27.944Z,95874.91
2023-03-11T09:41:58.327Z,95872.34
2023-03-11T09:43:41.345Z,95873.97
2023-03-11T09:44:49.256Z,95865.72
2023-03-11T09:46:18.084Z,95880.94
2023-03-11T09:47:53.326Z,95888.84
2023-03-11T09:49:09.139Z,95885.31
2023-03-11T09:50:22.253Z,95886.13
2023-03-11T09:51:31.010Z,95883.19
2023-03-11T09:52:44.090Z,95877.94
2023-03-11T09:53:48.255Z,95883.75
2023-03-11T09:54:53.823Z,95876.69
2023-03-11T09:55:58.545Z,95879.47
2023-03-11T09:57:02.724Z,95866.38
2023-03-11T09:58:12.942Z,95883.84
2023-03-11T09:59:21.612Z,95878.94
2023-03-11T10:00:24.693Z,95883.25
2023-03-11T10:01:33.164Z,95879.03
2023-03-11T10:02:36.597Z,95871.31
2023-03-11T10:03:39.874Z,95877.22
2023-03-11T10:04:47.279Z,95882.19
2023-03-11T10:05:49.296Z,95867.81
2023-03-11T10:06:51.658Z,95871.41
2023-03-11T10:08:18.218Z,95871.88
2023-03-11T10:09:48.034Z,95878.84
2023-03-11T10:11:01.470Z,95874.34
2023-03-11T10:12:21.155Z,95878.78
2023-03-11T10:13:32.825Z,95872.41
2023-03-11T10:14:52.539Z,95885.19
2023-03-11T10:16:12.666Z,95880.88
2023-03-11T10:17:19.877Z,95880.28
2023-03-11T10:18:24.028Z,95887.44
2023-03-11T10:19:54.428Z,95880.13
2023-03-11T10:21:26.832Z,95889.88
2023-03-11T10:22:42.680Z,95883.38
2023-03-11T10:23:49.726Z,95887.72
2023-03-11T10:25:14.125Z,95885.47
2023-03-11T10:26:23.062Z,95879.53
2023-03-11T10:27:31.208Z,95878.84
2023-03-11T10:28:37.072Z,95885.34
2023-03-11T10:29:49.780Z,95880.59
2023-03-11T10:31:20.415Z,95874.63
2023-03-11T10:32:29.958Z,95877.44
2023-03-11T10:33:39.323Z,95877.19
2023-03-11T10:34:52.901Z,95882.91
2023-03-11T10:35:57.836Z,95869.25
2023-03-11T10:37:06.956Z,95870.06
2023-03-11T10:38:19.788Z,95875.19
2023-03-11T10:39:22.711Z,95872.75
2023-03-11T10:40:27.101Z,95870.66
2023-03-11T10:41:42.122Z,95856.94
2023-03-11T10:42:46.214Z,95866.97
2023-03-11T10:44:10.020Z,95873.06
2023-03-11T10:45:14.142Z,95857.09
2023-03-11T10:46:21.119Z,95871.31
2023-03-11T10:47:25.501Z,95870.72
2023-03-11T10:48:26.929Z,95867.34
2023-03-11T10:49:28.547Z,95862.69
2023-03-11T10:50:36.406Z,95875.47
2023-03-11T10:51:38.747Z,95865.31
2023-03-11T10:53:06.521Z,95860.81
2023-03-11T10:54:08.018Z,95857.47
2023-03-11T10:55:20.114Z,95875.91
2023-03-11T10:56:32.199Z,95877.75
2023-03-11T10:57:36.331Z,95857.69
2023-03-11T10:58:48.572Z,95876.84
2023-03-11T10:59:58.179Z,95862.97
2023-03-11T11:01:21.661Z,95882.44
2023-03-11T11:02:26.179Z,95875.75
2023-03-11T11:03:28.273Z,95871.69
2023-03-11T11:04:40.859Z,95875.66
2023-03-11T11:05:42.230Z,95873.13
2023-03-11T11:06:43.658Z,95860.47
2023-03-11T11:07:46.754Z,95880.66
2023-03-11T11:08:48.500Z,95878.28
2023-03-11T11:10:13.530Z,95877.72
2023-03-11T11:11:24.772Z,95871.75
2023-03-11T11:12:26.138Z,95882.16
2023-03-11T11:13:34.327Z,95880.66
2023-03-11T11:14:51.245Z,95888.53
2023-03-11T11:15:56.678Z,95879.09
2023-03-11T11:16:58.258Z,95877.28
2023-03-11T11:18:16.924Z,95879.41
2023-03-11T11:19:22.387Z,95856.25
2023-03-11T11:20:25.492Z,95871.97
2023-03-11T11:21:33.174Z,95878.94
2023-03-11T11:22:35.471Z,95872.34
2023-03-11T11:23:40.027Z,95883.16
2023-03-11T11:24:45.432Z,95857.91
2023-03-11T11:25:58.594Z,95874.41
2023-03-11T11:27:19.226Z,95875.81
2023-03-11T11:28:20.920Z,95886.22
2023-03-11T11:29:22.328Z,95874.75
2023-03-11T11:30:24.834Z,95880.66
2023-03-11T11:31:26.844Z,95875.03
2023-03-11T11:32:29.130Z,95882.34
2023-03-11T11:33:39.759Z,95886.50
2023-03-11T11:34:41.404Z,95878.28
2023-03-11T11:36:15.738Z,95886.56
2023-03-11T11:37:17.117Z,95854.06
2023-03-11T11:38:22.544Z,95872.41
2023-03-11T11:39:26.956Z,95866.88
2023-03-11T11:40:31.107Z,95874.91
2023-03-11T11:41:36.627Z,95870.41
2023-03-11T11:42:44.365Z,95863.50
2023-03-11T11:44:02.833Z,95860.34
2023-03-11T11:45:15.176Z,95881.00
2023-03-11T11:46:37.101Z,95838.72
2023-03-11T11:47:48.415Z,95878.28
2023-03-11T11:49:08.432Z,95868.28
2023-03-11T11:50:33.937Z,95877.66
2023-03-11T11:51:40.284Z,95860.91
2023-03-11T11:52:46.923Z,95862.94
2023-03-11T11:54:17.501Z,95875.25
2023-03-11T11:55:34.046Z,95874.63
2023-03-11T11:56:35.486Z,95860.88
2023-03-11T11:57:37.297Z,95851.72
2023-03-11T11:58:40.968Z,95862.25
2023-03-11T11:59:43.330Z,95873.25
2023-03-11T12:00:57.546Z,95875.22
2023-03-11T12:02:13.605Z,95861.97
2023-03-11T12:03:53.338Z,95864.41
2023-03-11T12:05:13.956Z,95856.94
2023-03-11T12:06:54.528Z,95855.88
2023-03-11T12:08:25.460Z,95860.22
2023-03-11T12:09:37.805Z,95861.59
2023-03-11T12:10:56.929Z,95854.28
2023-03-11T12:12:17.284Z,95854.06
2023-03-11T12:13:28.946Z,95859.16
2023-03-11T12:14:30.820Z,95846.75
2023-03-11T12:15:41.262Z,95850.19
2023-03-11T12:16:57.098Z,95841.03
2023-03-11T12:18:06.157Z,95838.81
2023-03-11T12:19:10.730Z,95839.25
2023-03-11T12:20:20.787Z,95835.22
2023-03-11T12:21:42.138Z,95836.63
2023-03-11T12:23:28.898Z,95832.84
2023-03-11T12:25:09.124Z,95831.84
2023-03-11T12:26:22.688Z,95839.72
2023-03-11T12:27:29.714Z,95831.06
2023-03-11T12:28:50.903Z,95829.75
2023-03-11T12:29:57.830Z,95835.09
2023-03-11T12:31:07.239Z,95820.75
2023-03-11T12:32:20.080Z,95819.16
2023-03-11T12:33:34.775Z,95832.28
2023-03-11T12:34:36.300Z,95822.63
2023-03-11T12:35:37.821Z,95824.84
2023-03-11T12:36:41.950Z,95812.25
2023-03-11T12:37:43.622Z,95830.81
2023-03-11T12:38:49.094Z,95826.19
2023-03-11T12:39:50.593Z,95834.28
2023-03-11T12:41:16.035Z,95839.97
2023-03-11T12:42:19.259Z,95837.06
2023-03-11T12:43:35.765Z,95838.63
2023-03-11T12:44:38.724Z,95840.41
2023-03-11T12:45:52.298Z,95841.13
2023-03-11T12:46:59.852Z,95846.81
2023-03-11T12:48:29.365Z,95841.50
2023-03-11T12:49:36.105Z,95833.34
2023-03-11T12:50:41.355Z,95821.94
2023-03-11T12:52:01.428Z,95835.56
2023-03-11T12:53:03.913Z,95803.59
2023-03-11T12:54:20.100Z,95832.88
2023-03-11T12:55:29.873Z,95825.66
2023-03-11T12:56:40.749Z,95825.44
2023-03-11T12:57:58.464Z,95831.44
2023-03-11T12:59:22.875Z,95832.25
2023-03-11T13:00:24.420Z,95824.94
2023-03-11T13:01:43.585Z,95828.53
2023-03-11T13:03:03.011Z,95823.56
2023-03-11T13:04:35.108Z,95825.56
2023-03-11T13:05:50.503Z,95828.53
2023-03-11T13:07:14.440Z,95826.69
2023-03-11T13:08:19.647Z,95820.75
2023-03-11T13:09:21.374Z,95818.66
2023-03-11T13:10:28.587Z,95822.75
2023-03-11T13:11:33.249Z,95833.81
2023-03-11T13:12:40.987Z,95828.03
2023-03-11T13:13:42.848Z,95815.78
2023-03-11T13:14:44.423Z,95823.56
2023-03-11T13:15:45.903Z,95829.31
2023-03-11T13:16:48.123Z,95806.06
2023-03-11T13:17:57.343Z,95825.25
2023-03-11T13:19:27.933Z,95839.31
2023-03-11T13:20:44.522Z,95840.03
2023-03-11T13:21:46.059Z,95833.69
2023-03-11T13:22:53.404Z,95828.50
2023-03-11T13:24:20.001Z,95824.84
2023-03-11T13:25:32.614Z,95829.50
2023-03-11T13:26:44.078Z,95807.34
2023-03-11T13:27:49.465Z,95811.69
2023-03-11T13:29:09.164Z,95825.53
2023-03-11T13:30:22.222Z,95817.63
2023-03-11T13:31:54.585Z,95828.47
2023-03-11T13:33:28.046Z,95830.91
2023-03-11T13:34:57.127Z,95829.44
2023-03-11T13:36:01.461Z,95828.69
2023-03-11T13:37:51.441Z,95835.97
2023-03-11T13:39:31.814Z,95840.25
2023-03-11T13:40:38.396Z,95846.63
2023-03-11T13:41:47.571Z,95836.06
2023-03-11T13:42:51.486Z,95837.09
2023-03-11T13:43:56.947Z,95839.13
2023-03-11T13:44:59.567Z,95839.13
2023-03-11T13:46:30.757Z,95838.75
2023-03-11T13:47:36.576Z,95824.03
2023-03-11T13:48:44.851Z,95837.34
2023-03-11T13:49:54.597Z,95826.91
2023-03-11T13:51:13.057Z,95831.63
2023-03-11T13:52:18.722Z,95841.44
2023-03-11T13:53:25.832Z,95841.38
2023-03-11T13:54:36.669Z,95837.00
2023-03-11T13:55:46.367Z,95844.09
2023-03-11T13:57:02.109Z,95843.25
2023-03-11T13:58:15.153Z,95834.00
2023-03-11T13:59:17.861Z,95843.47
2023-03-11T14:00:24.648Z,95845.72
2023-03-11T14:01:26.222Z,95838.91
2023-03-11T14:02:27.789Z,95850.19
2023-03-11T14:03:40.875Z,95842.81
2023-03-11T14:04:49.125Z,95851.63
2023-03-11T14:05:57.985Z,95828.22
2023-03-11T14:07:01.015Z,95842.22
2023-03-11T14:08:20.642Z,95846.03
2023-03-11T14:09:24.233Z,95825.56
2023-03-11T14:10:30.695Z,95839.06
2023-03-11T14:11:32.329Z,95834.97
2023-03-11T14:12:33.744Z,95823.66
2023-03-11T14:13:40.412Z,95843.78
2023-03-11T14:14:44.632Z,95843.34
2023-03-11T14:15:55.364Z,95844.81
2023-03-11T14:16:57.789Z,95822.34
2023-03-11T14:18:35.826Z,95849.00
2023-03-11T14:19:37.197Z,95849.84
2023-03-11T14:20:38.652Z,95847.34
2023-03-11T14:21:44.639Z,95848.53
2023-03-11T14:22:49.410Z,95840.47
2023-03-11T14:23:53.606Z,95835.38
2023-03-11T14:24:55.038Z,95833.13
2023-03-11T14:26:06.479Z,95829.28
2023-03-11T14:27:09.710Z,95832.44
2023-03-11T14:28:20.262Z,95835.50
2023-03-11T14:29:37.552Z,95835.56
2023-03-11T14:30:38.965Z,95840.34
2023-03-11T14:31:43.846Z,95843.16
2023-03-11T14:32:56.764Z,95835.19
2023-03-11T14:34:04.496Z,95842.69
2023-03-11T14:35:21.495Z,95821.75
2023-03-11T14:36:23.108Z,95827.31
2023-03-11T14:37:38.574Z,95837.03
2023-03-11T14:38:44.112Z,95829.41
2023-03-11T14:39:47.647Z,95831.41
2023-03-11T14:40:55.306Z,95825.81
2023-03-11T14:42:13.673Z,95832.06
2023-03-11T14:43:15.106Z,95831.31
2023-03-11T14:44:17.024Z,95837.41
2023-03-11T14:45:21.312Z,95837.31
2023-03-11T14:46:28.783Z,95839.22
2023-03-11T14:47:39.430Z,95838.13
2023-03-11T14:48:44.054Z,95832.97
2023-03-11T14:49:48.982Z,95833.84
2023-03-11T14:50:51.565Z,95844.38
2023-03-11T14:52:01.251Z,95840.28
2023-03-11T14:53:14.190Z,95843.97
2023-03-11T14:54:19.579Z,95841.00
2023-03-11T14:55:36.216Z,95845.75
2023-03-11T14:56:43.176Z,95838.66
2023-03-11T14:58:19.021Z,95846.63
2023-03-11T14:59:26.875Z,95849.84
2023-03-11T15:00:39.490Z,95850.34
2023-03-11T15:01:43.302Z,95843.38
2023-03-11T15:03:12.703Z,95850.63
2023-03-11T15:04:31.394Z,95856.13
2023-03-11T15:05:47.957Z,95844.84
2023-03-11T15:06:50.463Z,95857.06
2023-03-11T15:07:59.216Z,95833.78
2023-03-11T15:09:10.866Z,95857.41
2023-03-11T15:10:13.271Z,95863.94
2023-03-11T15:11:15.375Z,95865.06
2023-03-11T15:12:34.688Z,95866.47
2023-03-11T15:13:38.118Z,95870.84
2023-03-11T15:14:50.619Z,95865.41
2023-03-11T15:16:07.487Z,95864.28
2023-03-11T15:17:35.260Z,95847.06
2023-03-11T15:18:42.691Z,95865.69
2023-03-11T15:19:44.229Z,95853.88
2023-03-11T15:20:45.789Z,95866.59
2023-03-11T15:21:49.600Z,95863.19
2023-03-11T15:23:01.377Z,95866.72
2023-03-11T15:24:06.620Z,95868.72
2023-03-11T15:25:17.750Z,95850.72
2023-03-11T15:26:29.419Z,95874.34
2023-03-11T15:27:38.931Z,95866.34
2023-03-11T15:28:40.594Z,95871.19
2023-03-11T15:29:51.384Z,95866.47
2023-03-11T15:31:14.961Z,95878.34
2023-03-11T15:32:37.436Z,95881.13
2023-03-11T15:33:39.981Z,95878.16
2023-03-11T15:34:41.976Z,95874.06
2023-03-11T15:35:48.743Z,95871.66
2023-03-11T15:36:50.104Z,95879.09
2023-03-11T15:38:12.377Z,95865.72
2023-03-11T15:39:46.989Z,95874.44
2023-03-11T15:40:57.845Z,95881.81
2023-03-11T15:42:03.956Z,95890.34
2023-03-11T15:43:23.761Z,95894.75
2023-03-11T15:44:29.966Z,95894.16
2023-03-11T15:45:31.445Z,95890.91
2023-03-11T15:46:34.290Z,95897.03
2023-03-11T15:47:36.098Z,95892.94
2023-03-11T15:48:37.474Z,95878.63
2023-03-11T15:49:39.086Z,95897.16
2023-03-11T15:50:53.754Z,95903.13
2023-03-11T16:11:45.889Z,95884.16
